Time;durP1;ratioP1;P1;durP2;ratioP2;P2;SDS_P1;SDS_P2;PMS_P1;PMS_P2;Temp;Humidity;BMP_temperature;BMP_pressure;BME280_temperature;BME280_humidity;BME280_pressure;Samples;Min_cycle;Max_cycle;Signal;HPM_P1;HPM_P2
2022/09/05 00:00:18;;;;;;;6.72;5.43;;;;;;;13.67;100.00;101257.50;5058054;28;20383;-73
2022/09/05 00:03:02;;;;;;;;;;;;;;;13.62;100.00;101254.50;5058475;28;20032;-72
2022/09/05 00:05:27;;;;;;;7.88;5.88;;;;;;;13.57;100.00;101261.72;5056231;28;19909;-72
2022/09/05 00:08:09;;;;;;;10.35;7.85;;;;;;;13.53;100.00;101255.38;5056374;28;20040;-74
2022/09/05 00:10:52;;;;;;;7.82;5.40;;;;;;;13.55;100.00;101255.66;5055977;28;20025;-73
2022/09/05 00:13:24;;;;;;;9.32;6.05;;;;;;;13.54;100.00;101254.09;5059163;28;20546;-72
2022/09/05 00:16:02;;;;;;;8.45;5.53;;;;;;;13.57;100.00;101260.94;5078032;28;20123;-73
2022/09/05 00:18:30;;;;;;;11.43;5.72;;;;;;;13.57;100.00;101261.72;5077951;28;20032;-72
2022/09/05 00:21:14;;;;;;;10.23;5.35;;;;;;;13.65;100.00;101265.00;5096018;28;20047;-71
2022/09/05 00:24:02;;;;;;;5.88;5.28;;;;;;;13.64;100.00;101258.47;5095796;28;20503;-72
2022/09/05 00:26:52;;;;;;;7.07;5.65;;;;;;;13.68;100.00;101264.84;5096297;28;20097;-72
2022/09/05 00:29:36;;;;;;;8.05;5.75;;;;;;;13.72;100.00;101264.63;5077899;28;20032;-72
2022/09/05 00:32:08;;;;;;;5.85;4.90;;;;;;;13.70;100.00;101265.13;5096169;28;20471;-72
2022/09/05 00:34:49;;;;;;;7.55;5.53;;;;;;;13.76;100.00;101259.50;5095745;28;20485;-72
2022/09/05 00:37:36;;;;;;;6.22;5.30;;;;;;;13.80;100.00;101262.97;5095943;28;20450;-73
2022/09/05 00:40:12;;;;;;;9.13;5.78;;;;;;;13.81;100.00;101255.94;5095727;28;20028;-72
2022/09/05 00:42:37;;;;;;;9.82;5.65;;;;;;;13.84;100.00;101255.72;5095582;28;20040;-72
2022/09/05 00:45:04;;;;;;;10.70;6.10;;;;;;;13.84;100.00;101257.81;5077327;28;20074;-72
2022/09/05 00:47:50;;;;;;;8.70;5.90;;;;;;;13.82;100.00;101255.44;5077445;28;20059;-72
2022/09/05 00:50:24;;;;;;;7.57;6.10;;;;;;;13.82;100.00;101252.56;5077211;28;20019;-72
2022/09/05 00:53:17;;;;;;;9.27;5.75;;;;;;;13.79;100.00;101256.41;5060479;28;20459;-73
2022/09/05 00:56:20;;;;;;;7.10;5.60;;;;;;;13.87;100.00;101256.84;5076661;28;20138;-72
2022/09/05 00:59:10;;;;;;;9.63;5.65;;;;;;;13.83;100.00;101254.16;5093177;28;20028;-74
2022/09/05 01:01:42;;;;;;;10.23;6.30;;;;;;;13.76;100.00;101250.88;5092897;28;20111;-72
2022/09/05 01:04:10;;;;;;;;;;;;;;;13.82;100.00;101255.44;5075212;28;20024;-72
2022/09/05 01:06:41;;;;;;;8.15;5.95;;;;;;;13.81;100.00;101253.84;5093307;28;20215;-73
2022/09/05 01:09:29;;;;;;;9.20;5.90;;;;;;;13.85;100.00;101259.41;5093169;28;20077;-72
2022/09/05 01:12:17;;;;;;;9.30;6.32;;;;;;;13.81;100.00;101247.31;5074515;28;20039;-72
2022/09/05 01:15:10;;;;;;;7.47;6.03;;;;;;;13.83;100.00;101254.16;5092640;28;20079;-74
2022/09/05 01:17:47;;;;;;;7.55;6.35;;;;;;;13.78;100.00;101259.81;5092182;28;20134;-73
2022/09/05 01:20:24;;;;;;;8.20;5.53;;;;;;;13.80;100.00;101258.00;5093390;28;20044;-73
2022/09/05 01:23:01;;;;;;;8.35;7.43;;;;;;;13.80;100.00;101251.47;5074898;28;20382;-72
2022/09/05 01:26:00;;;;;;;9.05;6.28;;;;;;;13.70;100.00;101265.13;5074992;28;20031;-73
2022/09/05 01:28:49;;;;;;;10.10;6.15;;;;;;;13.65;100.00;101270.75;5075741;28;20028;-73
2022/09/05 01:31:26;;;;;;;11.13;6.32;;;;;;;13.58;100.00;101268.25;5076435;28;20468;-72
2022/09/05 01:33:54;;;;;;;10.10;6.68;;;;;;;13.56;100.00;101268.75;5076588;28;20035;-72
2022/09/05 01:36:49;;;;;;;17.33;10.30;;;;;;;13.54;100.00;101272.09;5076460;28;20430;-72
2022/09/05 01:39:46;;;;;;;9.23;7.25;;;;;;;13.46;100.00;101270.88;5072520;28;20039;-73
2022/09/05 01:42:11;;;;;;;7.97;6.78;;;;;;;13.42;100.00;101272.34;5076760;28;20031;-73
2022/09/05 01:44:48;;;;;;;9.82;6.85;;;;;;;13.45;100.00;101268.47;5095269;28;20054;-71
2022/09/05 01:47:30;;;;;;;14.27;8.27;;;;;;;13.46;100.00;101267.19;5095069;28;20031;-72
2022/09/05 01:50:24;;;;;;;11.10;7.35;;;;;;;13.47;100.00;101280.28;5077778;28;20537;-71
2022/09/05 01:52:54;;;;;;;9.32;6.47;;;;;;;13.46;100.00;101285.22;5044216;28;20078;-71
2022/09/05 01:55:49;;;;;;;11.90;7.13;;;;;;;13.51;100.00;101287.44;5059435;28;20028;-72
2022/09/05 01:58:23;;;;;;;9.40;6.95;;;;;;;13.48;100.00;101285.53;5042588;28;20040;-71
2022/09/05 02:01:19;;;;;;;8.15;6.50;;;;;;;13.55;100.00;101278.63;5075877;28;20130;-72
2022/09/05 02:04:12;;;;;;;6.85;6.18;;;;;;;13.59;100.00;101278.47;5093874;28;20032;-74
2022/09/05 02:07:06;;;;;;;9.25;6.28;;;;;;;13.49;100.00;101278.47;5030272;28;20051;-73
2022/09/05 02:09:58;;;;;;;14.30;6.90;;;;;;;13.50;100.00;101273.53;5075654;28;20103;-73
2022/09/05 02:12:56;;;;;;;9.25;6.75;;;;;;;13.49;100.00;101275.63;5075510;28;20028;-72
2022/09/05 02:15:25;;;;;;;10.32;6.95;;;;;;;13.47;100.00;101283.94;5052777;28;20056;-71
2022/09/05 02:17:58;;;;;;;8.10;6.43;;;;;;;13.46;100.00;101281.56;5052339;28;20059;-71
2022/09/05 02:20:33;;;;;;;7.03;6.22;;;;;;;13.44;100.00;101278.38;5052067;28;20458;-73
2022/09/05 02:23:09;;;;;;;7.47;6.68;;;;;;;13.43;100.00;101274.72;5035475;28;20021;-73
2022/09/05 02:26:03;;;;;;;8.15;6.80;;;;;;;13.41;100.00;101276.47;5035564;28;20029;-73
2022/09/05 02:28:43;;;;;;;7.35;6.53;;;;;;;13.39;100.00;101279.84;5051884;28;20390;-71
2022/09/05 02:31:40;;;;;;;8.45;7.15;;;;;;;13.36;100.00;101285.75;5053205;28;20036;-73
2022/09/05 02:34:20;;;;;;;8.43;6.82;;;;;;;13.35;100.00;101278.44;5028392;28;20040;-73
2022/09/05 02:36:53;;;;;;;9.77;6.78;;;;;;;13.26;100.00;101278.50;5052182;28;20086;-72
2022/09/05 02:39:28;;;;;;;9.25;7.32;;;;;;;13.27;100.00;101275.16;5053134;28;20481;-71
2022/09/05 02:42:03;;;;;;;11.27;6.78;;;;;;;13.21;100.00;101282.03;5035311;28;20025;-73
2022/09/05 02:44:33;;;;;;;8.70;7.38;;;;;;;13.25;100.00;101277.69;5053306;28;20036;-72
2022/09/05 02:47:13;;;;;;;8.93;7.13;;;;;;;13.23;100.00;101288.09;5053330;28;20077;-72
2022/09/05 02:50:00;;;;;;;8.75;7.10;;;;;;;13.18;100.00;101280.94;5051605;28;20033;-73
2022/09/05 02:52:29;;;;;;;8.32;7.18;;;;;;;13.13;100.00;101278.75;5051851;28;20024;-72
2022/09/05 02:54:55;;;;;;;11.02;7.45;;;;;;;13.17;100.00;101276.47;5052000;28;20108;-72
2022/09/05 02:57:35;;;;;;;7.53;6.45;;;;;;;13.16;100.00;101288.44;5052103;28;20035;-73
2022/09/05 03:00:15;;;;;;;8.55;6.57;;;;;;;13.18;100.00;101286.69;5051841;28;20049;-73
2022/09/05 03:03:08;;;;;;;9.85;8.07;;;;;;;13.14;100.00;101283.97;5052923;28;20442;-73
2022/09/05 03:05:44;;;;;;;8.52;7.38;;;;;;;13.07;100.00;101289.28;5052807;28;20037;-73
2022/09/05 03:08:09;;;;;;;9.60;7.32;;;;;;;13.01;100.00;101283.41;5035003;28;20047;-73
2022/09/05 03:10:35;;;;;;;7.45;6.78;;;;;;;12.92;100.00;101286.34;5052757;28;20036;-72
2022/09/05 03:13:19;;;;;;;8.77;7.65;;;;;;;12.92;100.00;101286.34;5053402;28;20029;-74
2022/09/05 03:15:59;;;;;;;9.13;7.30;;;;;;;12.87;100.00;101278.41;5053123;28;20158;-72
2022/09/05 03:19:02;;;;;;;10.25;7.60;;;;;;;12.72;100.00;101285.31;5034967;28;20032;-73
2022/09/05 03:21:28;;;;;;;8.77;7.72;;;;;;;12.69;100.00;101285.00;5051546;28;20090;-72
2022/09/05 03:24:31;;;;;;;10.43;7.68;;;;;;;12.65;100.00;101290.09;5051586;28;20474;-72
2022/09/05 03:27:30;;;;;;;9.25;8.23;;;;;;;12.62;100.00;101291.09;5052722;28;20025;-72
2022/09/05 03:29:58;;;;;;;12.10;8.32;;;;;;;12.58;100.00;101290.47;5053113;28;20114;-73
2022/09/05 03:32:51;;;;;;;9.93;8.25;;;;;;;12.61;100.00;101291.56;5052779;28;20056;-72
2022/09/05 03:35:50;;;;;;;10.43;7.78;;;;;;;12.58;100.00;101304.00;5052743;28;20032;-72
2022/09/05 03:38:40;;;;;;;9.60;8.07;;;;;;;12.53;100.00;101308.31;5052970;28;20029;-71
2022/09/05 03:41:17;;;;;;;10.93;7.95;;;;;;;12.52;100.00;101312.47;5054673;28;20031;-73
2022/09/05 03:44:01;;;;;;;11.30;8.32;;;;;;;12.51;100.00;101310.84;5056409;28;20544;-72
2022/09/05 03:46:52;;;;;;;9.38;8.18;;;;;;;12.56;100.00;101320.88;5056857;28;20032;-71
2022/09/05 03:49:39;;;;;;;9.40;8.10;;;;;;;12.57;100.00;101320.41;5038593;28;20036;-73
2022/09/05 03:52:23;;;;;;;10.80;8.30;;;;;;;12.60;100.00;101321.53;5056175;28;20025;-73
2022/09/05 03:55:06;;;;;;;11.60;8.15;;;;;;;12.63;100.00;101320.56;5056658;28;20025;-72
2022/09/05 03:58:16;;;;;;;10.45;8.00;;;;;;;12.65;100.00;101324.50;5055000;28;20078;-73
2022/09/05 04:01:11;;;;;;;9.75;7.85;;;;;;;12.69;100.00;101325.16;5041832;28;20029;-71
2022/09/05 04:03:56;;;;;;;10.30;7.70;;;;;;;12.72;100.00;101336.94;5038189;28;20051;-73
2022/09/05 04:06:46;;;;;;;10.40;8.23;;;;;;;12.76;100.00;101332.59;5054820;28;20021;-72
2022/09/05 04:09:36;;;;;;;13.23;8.07;;;;;;;12.82;100.00;101332.75;5056366;28;20029;-72
2022/09/05 04:12:54;;;;;;;10.55;7.55;;;;;;;12.83;100.00;101337.22;5054766;28;20032;-73
2022/09/05 04:15:39;;;;;;;8.65;7.75;;;;;;;12.87;100.00;101334.97;5013924;28;20059;-74
2022/09/05 04:18:11;;;;;;;13.15;7.43;;;;;;;12.98;100.00;101335.25;5037988;28;20027;-73
2022/09/05 04:21:09;;;;;;;10.57;7.65;;;;;;;12.97;100.00;101345.13;5055427;28;20044;-72
2022/09/05 04:23:59;;;;;;;13.90;8.15;;;;;;;13.12;100.00;101346.81;5055255;28;20045;-72
2022/09/05 04:26:24;;;;;;;10.57;8.50;;;;;;;13.12;100.00;101343.94;5055644;28;20031;-73
2022/09/05 04:29:16;;;;;;;7.43;6.72;;;;;;;13.03;100.00;101338.25;5055690;28;20029;-73
2022/09/05 04:31:45;;;;;;;8.18;7.00;;;;;;;13.03;100.00;101346.06;5055649;28;20549;-73
2022/09/05 04:34:41;;;;;;;9.93;7.85;;;;;;;13.13;100.00;101347.63;5055511;28;20036;-73
2022/09/05 04:37:09;;;;;;;10.77;7.88;;;;;;;13.13;100.00;101350.50;5054176;28;20045;-72
2022/09/05 04:39:35;;;;;;;12.23;7.78;;;;;;;13.26;100.00;101351.06;5054374;28;20478;-72
2022/09/05 04:42:04;;;;;;;10.48;7.50;;;;;;;13.28;100.00;101356.31;5054690;28;20025;-72
2022/09/05 04:44:40;;;;;;;10.65;7.40;;;;;;;13.30;100.00;101360.28;5055354;28;20392;-72
2022/09/05 04:47:30;;;;;;;8.68;7.05;;;;;;;13.37;100.00;101362.81;5070895;28;20021;-72
2022/09/05 04:50:25;;;;;;;11.35;7.90;;;;;;;13.45;100.00;101361.16;5053040;28;20492;-75
2022/09/05 04:53:13;;;;;;;9.32;7.63;;;;;;;13.53;100.00;101358.75;5037500;28;20025;-72
2022/09/05 04:55:51;;;;;;;8.73;7.30;;;;;;;13.59;100.00;101365.41;5054038;28;20063;-73
2022/09/05 04:58:24;;;;;;;9.77;7.75;;;;;;;13.64;100.00;101361.09;5054071;28;20389;-73
2022/09/05 05:00:53;;;;;;;12.93;7.65;;;;;;;13.71;100.00;101366.44;5055046;28;20020;-73
2022/09/05 05:03:27;;;;;;;11.38;7.53;;;;;;;13.80;100.00;101357.75;5054841;28;20037;-76
2022/09/05 05:06:04;;;;;;;10.57;7.68;;;;;;;13.87;100.00;101368.91;5036784;28;20126;-76
2022/09/05 05:09:14;;;;;;;12.73;7.78;;;;;;;13.96;100.00;101375.38;5050171;28;20063;-72
2022/09/05 05:12:09;;;;;;;10.38;7.13;;;;;;;14.05;100.00;101374.50;5031485;28;20037;-73
2022/09/05 05:14:42;;;;;;;14.88;7.72;;;;;;;14.16;100.00;101371.84;5074859;28;20068;-73
2022/09/05 05:17:29;;;;;;;10.52;7.30;;;;;;;14.30;100.00;101371.09;5077165;28;20035;-75
2022/09/05 05:20:37;;;;;;;12.20;7.93;;;;;;;14.54;100.00;101364.47;5060053;28;20384;-74
2022/09/05 05:23:16;;;;;;;10.50;6.68;;;;;;;14.71;100.00;101365.59;5074145;28;20505;-74
2022/09/05 05:25:48;;;;;;;9.93;7.25;;;;;;;14.93;100.00;101365.19;5075565;28;20059;-74
2022/09/05 05:28:26;;;;;;;10.35;7.22;;;;;;;15.11;100.00;101364.97;5075050;28;20460;-76
2022/09/05 05:30:53;;;;;;;10.43;7.57;;;;;;;15.19;100.00;101355.44;5074812;28;20027;-74
2022/09/05 05:33:32;;;;;;;9.73;6.90;;;;;;;15.34;100.00;101369.00;5093614;28;20384;-77
2022/09/05 05:36:00;;;;;;;12.48;7.45;;;;;;;15.25;100.00;101375.69;5094606;28;20438;-76
2022/09/05 05:38:37;;;;;;;11.93;7.00;;;;;;;15.41;100.00;101378.03;5076359;28;20028;-75
2022/09/05 05:41:36;;;;;;;12.57;7.15;;;;;;;15.47;100.00;101373.13;5076519;28;20024;-75
2022/09/05 05:44:29;;;;;;;12.75;7.03;;;;;;;15.77;100.00;101379.59;5093439;28;20065;-75
2022/09/05 05:46:59;;;;;;;12.18;7.25;;;;;;;15.93;100.00;101381.94;5073964;28;20365;-77
2022/09/05 05:49:28;;;;;;;11.65;6.80;;;;;;;16.10;100.00;101382.94;5076400;28;20461;-75
2022/09/05 05:51:58;;;;;;;12.32;7.93;;;;;;;16.30;100.00;101387.91;5094345;28;20024;-76
2022/09/05 05:54:41;;;;;;;9.98;6.85;;;;;;;16.64;100.00;101391.19;5076489;28;20084;-76
2022/09/05 05:57:25;;;;;;;7.13;6.43;;;;;;;17.03;99.22;101391.53;5060366;28;20020;-77
2022/09/05 05:59:56;;;;;;;11.30;7.07;;;;;;;17.31;96.64;101389.66;5097695;28;20020;-76
2022/09/05 06:03:09;;;;;;;7.85;6.25;;;;;;;17.59;93.86;101395.66;5093995;28;20173;-78
2022/09/05 06:06:06;;;;;;;9.82;6.75;;;;;;;17.61;91.67;101405.41;5046646;28;20036;-78
2022/09/05 06:08:56;;;;;;;9.32;6.72;;;;;;;17.53;92.17;101401.44;5054557;28;20126;-77
2022/09/05 06:11:50;;;;;;;11.25;6.55;;;;;;;17.74;91.94;101397.06;5092110;28;20024;-76
2022/09/05 06:14:37;;;;;;;14.10;7.28;;;;;;;17.86;90.19;101400.03;5068782;28;20055;-77
2022/09/05 06:17:08;;;;;;;12.85;7.10;;;;;;;18.05;89.38;101404.09;5076599;28;20016;-76
2022/09/05 06:19:36;;;;;;;7.95;7.10;;;;;;;18.15;87.96;101409.13;5075925;28;20020;-76
2022/09/05 06:22:11;;;;;;;8.20;6.40;;;;;;;18.22;86.70;101405.75;5075541;28;20477;-77
2022/09/05 06:25:07;;;;;;;11.65;7.10;;;;;;;18.34;86.46;101408.69;5094136;28;20032;-74
2022/09/05 06:27:32;;;;;;;12.10;7.82;;;;;;;18.44;86.10;101402.16;5075632;28;20111;-75
2022/09/05 06:30:19;;;;;;;7.55;6.55;;;;;;;18.76;84.59;101405.66;5071732;28;20479;-76
2022/09/05 06:33:06;;;;;;;9.85;6.70;;;;;;;19.01;80.68;101403.84;5071689;28;20028;-79
2022/09/05 06:35:50;;;;;;;14.98;8.13;;;;;;;19.20;78.80;101409.94;5093325;28;20032;-74
2022/09/05 06:38:45;;;;;;;10.00;7.13;;;;;;;19.28;77.38;101416.78;5093433;28;20406;-75
2022/09/05 06:41:23;;;;;;;12.93;7.78;;;;;;;19.22;75.83;101416.00;5093230;28;20457;-75
2022/09/05 06:44:11;;;;;;;10.05;6.65;;;;;;;19.23;74.23;101427.06;5092050;28;20030;-76
2022/09/05 06:46:38;;;;;;;10.32;6.43;;;;;;;19.59;74.61;101416.50;5093234;28;20028;-74
2022/09/05 06:49:34;;;;;;;7.88;5.70;;;;;;;20.00;71.00;101419.63;5091622;28;20039;-77
2022/09/05 06:52:36;;;;;;;6.25;5.40;;;;;;;20.47;69.12;101423.38;5091865;28;20032;-75
2022/09/05 06:55:26;;;;;;;11.73;6.25;;;;;;;21.08;65.76;101425.94;5093502;28;20032;-74
2022/09/05 06:58:25;;;;;;;8.65;5.95;;;;;;;22.28;63.16;101420.78;5092993;28;20024;-74
2022/09/05 07:00:55;;;;;;;8.80;6.25;;;;;;;23.37;54.11;101441.47;5091492;28;20054;-73
2022/09/05 07:03:23;;;;;;;13.20;6.03;;;;;;;23.72;51.93;101449.91;5057057;28;20089;-77
2022/09/05 07:06:30;;;;;;;7.53;5.57;;;;;;;23.92;49.99;101457.22;5074738;28;20110;-76
2022/09/05 07:09:11;;;;;;;10.90;5.00;;;;;;;23.86;49.56;101452.84;5074692;28;20543;-74
2022/09/05 07:11:54;;;;;;;13.70;5.18;;;;;;;23.30;49.73;101456.72;5093010;28;20032;-74
2022/09/05 07:14:30;;;;;;;6.18;4.72;;;;;;;23.70;48.88;101454.75;5095049;28;20055;-75
2022/09/05 07:17:07;;;;;;;8.50;4.78;;;;;;;24.61;46.33;101462.75;5096997;28;20066;-73
2022/09/05 07:19:34;;;;;;;7.28;4.20;;;;;;;25.57;44.28;101470.94;5079209;28;20024;-75
2022/09/05 07:22:25;;;;;;;6.38;4.25;;;;;;;25.55;43.83;101461.13;5096459;28;20130;-76
2022/09/05 07:24:51;;;;;;;9.35;4.72;;;;;;;25.61;43.44;101459.63;5095446;28;20035;-72
2022/09/05 07:27:34;;;;;;;7.18;4.70;;;;;;;25.82;43.38;101463.34;5096793;28;20039;-76
2022/09/05 07:30:01;;;;;;;7.00;4.50;;;;;;;26.46;42.95;101462.63;5096850;28;20424;-74
2022/09/05 07:32:28;;;;;;;4.40;4.00;;;;;;;26.72;40.54;101473.31;5095623;28;20098;-76
2022/09/05 07:34:55;;;;;;;4.90;4.22;;;;;;;26.83;39.50;101478.84;5077933;28;20039;-74
2022/09/05 07:37:22;;;;;;;5.10;4.60;;;;;;;26.67;39.35;101475.03;5096521;28;20535;-74
2022/09/05 07:40:08;;;;;;;29.90;7.00;;;;;;;27.06;38.29;101484.84;5078317;28;20395;-73
2022/09/05 07:43:06;;;;;;;48.08;11.85;;;;;;;27.91;36.81;101494.00;5078027;28;20034;-74
2022/09/05 07:45:35;;;;;;;38.30;8.93;;;;;;;27.78;35.67;101491.25;5078611;28;20035;-75
2022/09/05 07:48:07;;;;;;;9.00;4.50;;;;;;;26.83;37.30;101495.69;5079104;28;20043;-73
2022/09/05 07:50:44;;;;;;;8.25;3.92;;;;;;;26.91;37.96;101485.53;5096680;28;20059;-74
2022/09/05 07:53:10;;;;;;;7.63;3.67;;;;;;;26.93;38.15;101484.97;5061891;28;20053;-76
2022/09/05 07:55:36;;;;;;;6.63;4.10;;;;;;;27.38;37.47;101481.41;5076592;28;20036;-76
2022/09/05 07:58:06;;;;;;;10.48;4.28;;;;;;;28.17;36.57;101498.72;5078002;28;20031;-77
2022/09/05 08:00:33;;;;;;;9.05;4.15;;;;;;;28.28;35.95;101489.47;5096317;28;20039;-77
2022/09/05 08:03:07;;;;;;;8.75;4.40;;;;;;;29.75;34.38;101492.00;5078050;28;20046;-73
2022/09/05 08:05:39;;;;;;;6.45;4.30;;;;;;;31.22;32.08;101487.09;5078172;28;20047;-75
2022/09/05 08:08:10;;;;;;;7.65;4.32;;;;;;;31.50;30.08;101485.69;5095768;28;20036;-74
2022/09/05 08:10:46;;;;;;;;;;;;;;;31.46;30.14;101481.63;5078268;28;20367;-76
2022/09/05 08:13:13;;;;;;;6.55;4.15;;;;;;;31.95;30.40;101490.13;5077215;28;19923;-73
2022/09/05 08:15:44;;;;;;;5.35;3.97;;;;;;;31.63;29.18;101485.31;5096168;28;20047;-74
2022/09/05 08:18:13;;;;;;;8.18;4.50;;;;;;;32.59;28.78;101478.88;5078297;28;20027;-73
2022/09/05 08:20:46;;;;;;;3.72;3.42;;;;;;;32.54;28.67;101483.72;5095738;28;20378;-72
2022/09/05 08:23:36;;;;;;;7.65;3.75;;;;;;;32.87;28.37;101484.06;5095155;28;20472;-78
2022/09/05 08:26:11;;;;;;;8.55;4.28;;;;;;;32.60;27.82;101481.22;5095142;28;20035;-73
2022/09/05 08:28:42;;;;;;;7.80;3.63;;;;;;;32.62;28.45;101475.47;5095701;28;20039;-74
2022/09/05 08:31:19;;;;;;;7.50;3.60;;;;;;;32.47;27.64;101484.66;5095560;28;20028;-78
2022/09/05 08:33:47;;;;;;;7.07;4.25;;;;;;;31.92;28.92;101470.66;5060972;28;20028;-73
2022/09/05 08:36:15;;;;;;;5.30;3.80;;;;;;;31.63;29.70;101469.75;5095704;28;20027;-73
2022/09/05 08:38:42;;;;;;;4.32;3.92;;;;;;;31.36;30.26;101469.75;5095733;28;20028;-74
2022/09/05 08:41:14;;;;;;;5.18;3.75;;;;;;;31.01;30.10;101472.00;5060766;28;20357;-74
2022/09/05 08:44:11;;;;;;;9.05;3.30;;;;;;;30.91;30.44;101465.25;5095248;28;20107;-73
2022/09/05 08:47:05;;;;;;;4.72;3.72;;;;;;;30.69;30.34;101466.34;5077505;28;20028;-76
2022/09/05 08:49:49;;;;;;;5.20;3.22;;;;;;;30.94;29.91;101461.09;5077118;28;20035;-73
2022/09/05 08:52:27;;;;;;;9.55;4.38;;;;;;;30.90;30.26;101455.63;5095135;28;20059;-75
2022/09/05 08:55:09;;;;;;;5.72;4.00;;;;;;;30.61;30.87;101447.91;5095403;28;20039;-75
2022/09/05 08:57:49;;;;;;;5.20;3.17;;;;;;;30.68;31.03;101441.94;5095357;28;20028;-72
2022/09/05 09:00:18;;;;;;;6.25;3.53;;;;;;;30.78;30.34;101444.97;5095007;28;20111;-75
2022/09/05 09:03:04;;;;;;;5.93;3.53;;;;;;;30.88;30.84;101442.84;5095272;28;20085;-75
2022/09/05 09:06:05;;;;;;;4.65;3.22;;;;;;;29.75;31.09;101436.78;5077130;28;20024;-73
2022/09/05 09:08:39;;;;;;;4.03;3.00;;;;;;;30.02;31.32;101428.84;5076708;28;20106;-74
2022/09/05 09:11:11;;;;;;;5.22;3.15;;;;;;;29.59;31.74;101427.28;5076526;28;20110;-75
2022/09/05 09:13:51;;;;;;;22.60;5.47;;;;;;;29.24;32.51;101423.38;5073477;28;20511;-75
2022/09/05 09:16:34;;;;;;;10.38;3.47;;;;;;;28.81;32.57;101424.59;5074893;28;20039;-74
2022/09/05 09:19:02;;;;;;;6.20;3.38;;;;;;;28.36;33.35;101419.66;5073254;28;20024;-76
2022/09/05 09:21:36;;;;;;;7.93;3.15;;;;;;;28.02;33.49;101426.03;5073344;28;20074;-74
2022/09/05 09:24:20;;;;;;;5.53;2.95;;;;;;;27.86;33.74;101411.91;5074579;28;20024;-75
2022/09/05 09:27:00;;;;;;;6.80;4.28;;;;;;;27.72;34.38;101408.38;5072815;28;20473;-72
2022/09/05 09:29:26;;;;;;;104.38;15.38;;;;;;;27.37;34.28;101407.22;5074286;28;20032;-75
2022/09/05 09:31:59;;;;;;;5.32;3.20;;;;;;;26.89;34.81;101406.13;5074278;28;20029;-75
2022/09/05 09:34:24;;;;;;;9.80;3.13;;;;;;;26.55;35.82;101406.38;5073117;28;20024;-74
2022/09/05 09:36:53;;;;;;;3.40;2.47;;;;;;;26.10;35.17;101401.03;5073512;28;20435;-74
2022/09/05 09:40:12;;;;;;;4.60;3.00;;;;;;;25.93;36.77;101395.63;5073987;28;20032;-73
2022/09/05 09:42:50;;;;;;;4.70;2.67;;;;;;;25.50;36.87;101395.50;5012412;28;20411;-72
2022/09/05 09:45:30;;;;;;;4.88;2.70;;;;;;;25.28;38.32;101390.22;5072865;28;20028;-75
2022/09/05 09:48:15;;;;;;;3.80;2.47;;;;;;;25.12;37.89;101403.13;5073206;28;20028;-73
2022/09/05 09:51:02;;;;;;;8.75;3.38;;;;;;;25.04;37.90;101391.34;5074051;28;20028;-73
2022/09/05 09:53:46;;;;;;;3.22;2.78;;;;;;;25.04;38.83;101389.19;5073617;28;20036;-73
2022/09/05 09:56:33;;;;;;;3.13;2.40;;;;;;;24.99;38.42;101378.41;5074016;28;20115;-75
2022/09/05 09:59:05;;;;;;;3.25;2.30;;;;;;;24.83;38.10;101385.44;5073822;28;20078;-74
2022/09/05 10:02:06;;;;;;;3.00;2.70;;;;;;;24.73;38.89;101398.19;5073758;28;20120;-73
2022/09/05 10:04:57;;;;;;;6.03;3.03;;;;;;;24.41;39.33;101377.91;5073763;28;20036;-74
2022/09/05 10:07:28;;;;;;;;;;;;;;;24.21;40.13;101373.53;5074629;28;20039;-75
2022/09/05 10:10:38;;;;;;;6.82;2.97;;;;;;;24.11;41.73;101378.25;5072394;28;19919;-74
2022/09/05 10:13:19;;;;;;;3.78;2.63;;;;;;;24.01;41.52;101372.09;5036298;28;20045;-74
2022/09/05 10:15:47;;;;;;;5.15;2.80;;;;;;;24.14;40.46;101377.16;5073516;28;20393;-75
2022/09/05 10:18:54;;;;;;;6.03;3.08;;;;;;;24.17;41.41;101365.13;5073963;28;20058;-76
2022/09/05 10:21:36;;;;;;;27.90;5.53;;;;;;;24.25;40.20;101373.25;5071546;28;20040;-77
2022/09/05 10:24:26;;;;;;;10.13;3.78;;;;;;;24.45;40.88;101370.38;5073531;28;20043;-74
2022/09/05 10:27:29;;;;;;;3.63;2.47;;;;;;;24.59;40.33;101362.38;5073450;28;20079;-76
2022/09/05 10:30:05;;;;;;;8.98;2.95;;;;;;;24.74;38.88;101371.28;5073754;28;20036;-76
2022/09/05 10:32:41;;;;;;;8.02;4.25;;;;;;;24.75;38.97;101361.16;5074600;28;20024;-75
2022/09/05 10:35:23;;;;;;;3.03;2.38;;;;;;;24.59;39.47;101366.06;5072490;28;20473;-76
2022/09/05 10:37:53;;;;;;;;;;;;;;;24.52;40.10;101358.00;5073277;28;20025;-77
2022/09/05 10:40:21;;;;;;;12.35;4.35;;;;;;;24.37;39.84;101359.94;5073139;28;20357;-76
2022/09/05 10:42:51;;;;;;;3.50;3.00;;;;;;;24.23;40.47;101355.47;5072421;28;20024;-76
2022/09/05 10:45:36;;;;;;;3.92;2.83;;;;;;;24.09;41.34;101357.63;5073721;28;20103;-76
2022/09/05 10:48:35;;;;;;;4.18;2.85;;;;;;;23.93;40.60;101349.97;5071842;28;20028;-74
2022/09/05 10:51:06;;;;;;;3.95;2.45;;;;;;;23.98;41.30;101349.06;5070109;28;20093;-76
2022/09/05 10:54:00;;;;;;;3.20;2.85;;;;;;;23.94;41.29;101357.41;5070815;28;20032;-73
2022/09/05 10:56:32;;;;;;;4.03;2.67;;;;;;;23.91;39.81;101340.97;5073189;28;20470;-74
2022/09/05 10:59:00;;;;;;;2.95;2.40;;;;;;;23.89;40.12;101343.69;5071699;28;20119;-72
2022/09/05 11:01:40;;;;;;;2.58;2.22;;;;;;;23.46;41.09;101341.06;5072155;28;20024;-78
2022/09/05 11:04:12;;;;;;;9.55;3.10;;;;;;;23.24;41.96;101331.38;5053792;28;20070;-80
2022/09/05 11:06:41;;;;;;;6.07;2.47;;;;;;;23.22;43.04;101328.22;5073509;28;20036;-75
2022/09/05 11:09:23;;;;;;;18.92;3.97;;;;;;;23.05;43.78;101326.97;5071234;28;20029;-76
2022/09/05 11:12:37;;;;;;;3.70;2.80;;;;;;;22.72;44.16;101314.47;5073270;28;20477;-76
2022/09/05 11:15:17;;;;;;;5.78;3.28;;;;;;;22.50;44.73;101315.63;5010682;28;20080;-76
2022/09/05 11:18:02;;;;;;;3.43;2.83;;;;;;;22.55;45.51;101313.97;5051439;28;20029;-80
2022/09/05 11:20:47;;;;;;;3.83;2.88;;;;;;;22.76;43.59;101317.09;5051951;28;20086;-80
2022/09/05 11:23:31;;;;;;;4.20;2.38;;;;;;;22.60;43.97;101313.09;5051659;28;20390;-74
2022/09/05 11:26:16;;;;;;;3.72;2.63;;;;;;;22.88;43.75;101321.41;5052109;28;20033;-80
2022/09/05 11:28:54;;;;;;;3.20;2.78;;;;;;;23.02;41.40;101325.13;5015409;28;20037;-75
2022/09/05 11:31:26;;;;;;;7.88;3.30;;;;;;;23.04;42.11;101319.53;5066335;28;20032;-73
2022/09/05 11:34:11;;;;;;;5.53;2.45;;;;;;;23.02;42.03;101313.47;5051250;28;20040;-76
2022/09/05 11:36:48;;;;;;;10.13;3.20;;;;;;;23.09;41.60;101322.38;5051061;28;20025;-73
2022/09/05 11:39:38;;;;;;;10.20;3.65;;;;;;;23.09;42.73;101309.91;5051503;28;20029;-74
2022/09/05 11:42:29;;;;;;;3.75;2.70;;;;;;;23.16;43.65;101312.94;5052624;28;20627;-75
2022/09/05 11:45:13;;;;;;;6.38;2.78;;;;;;;23.15;43.70;101310.59;5021636;28;20049;-83
2022/09/05 11:47:38;;;;;;;9.52;3.10;;;;;;;23.28;43.34;101305.56;5051429;28;20036;-78
2022/09/05 11:50:28;;;;;;;4.30;2.67;;;;;;;23.23;43.29;101312.31;5052633;28;20388;-76
2022/09/05 11:53:13;;;;;;;4.20;2.45;;;;;;;23.22;43.39;101315.75;5052433;28;20029;-75
2022/09/05 11:55:38;;;;;;;4.05;2.55;;;;;;;23.26;42.36;101314.09;5052416;28;20114;-79
2022/09/05 11:58:20;;;;;;;3.28;2.17;;;;;;;23.23;41.52;101309.38;5052518;28;20389;-76
2022/09/05 12:00:58;;;;;;;3.15;2.72;;;;;;;23.01;41.98;101312.72;5052644;28;20029;-79
2022/09/05 12:04:05;;;;;;;3.72;3.22;;;;;;;22.90;42.82;101310.78;5055313;28;20135;-76
2022/09/05 12:06:56;;;;;;;4.93;2.83;;;;;;;22.96;42.82;101315.72;5017821;28;20040;-77
2022/09/05 12:09:53;;;;;;;2.88;2.47;;;;;;;23.23;41.95;101317.34;5056117;28;20037;-76
2022/09/05 12:12:34;;;;;;;5.93;2.42;;;;;;;23.55;40.80;101317.31;5019359;28;20045;-77
2022/09/05 12:15:26;;;;;;;4.75;2.42;;;;;;;23.22;40.72;101313.63;5085749;28;20048;-76
2022/09/05 12:18:02;;;;;;;5.63;3.72;;;;;;;23.33;40.43;101316.34;5096168;28;20027;-75
2022/09/05 12:20:54;;;;;;;3.85;2.50;;;;;;;23.34;40.39;101306.25;5078214;28;20036;-74
2022/09/05 12:23:32;;;;;;;6.65;3.03;;;;;;;23.31;41.16;101310.28;5095096;28;20035;-75